sensor_id;sensor_type;location;lat;lon;timestamp;temperature;humidity
9776;DHT22;4927;52.472;13.108;2024-03-02T00:00:14;5.30;99.90
9776;DHT22;4927;52.472;13.108;2024-03-02T00:01:18;5.30;99.90
9776;DHT22;4927;52.472;13.108;2024-03-02T00:02:23;5.30;99.90
9776;DHT22;4927;52.472;13.108;2024-03-02T00:03:27;5.30;99.90
9776;DHT22;4927;52.472;13.108;2024-03-02T00:04:30;5.30;99.90
9776;DHT22;4927;52.472;13.108;2024-03-02T00:05:35;5.30;99.90
9776;DHT22;4927;52.472;13.108;2024-03-02T00:06:38;5.30;99.90
9776;DHT22;4927;52.472;13.108;2024-03-02T00:07:41;5.30;99.90
9776;DHT22;4927;52.472;13.108;2024-03-02T00:08:45;5.30;99.90
9776;DHT22;4927;52.472;13.108;2024-03-02T00:09:51;5.30;99.90
9776;DHT22;4927;52.472;13.108;2024-03-02T00:10:52;5.30;99.90
9776;DHT22;4927;52.472;13.108;2024-03-02T00:11:55;5.30;99.90
9776;DHT22;4927;52.472;13.108;2024-03-02T00:12:58;5.30;99.90
9776;DHT22;4927;52.472;13.108;2024-03-02T00:14:01;5.30;99.90
9776;DHT22;4927;52.472;13.108;2024-03-02T00:16:21;5.30;99.90
9776;DHT22;4927;52.472;13.108;2024-03-02T00:17:25;5.30;99.90
9776;DHT22;4927;52.472;13.108;2024-03-02T00:18:33;5.30;99.90
9776;DHT22;4927;52.472;13.108;2024-03-02T00:19:38;5.40;99.90
9776;DHT22;4927;52.472;13.108;2024-03-02T00:20:41;5.40;99.90
9776;DHT22;4927;52.472;13.108;2024-03-02T00:21:43;5.40;99.90
9776;DHT22;4927;52.472;13.108;2024-03-02T00:22:47;5.40;99.90
9776;DHT22;4927;52.472;13.108;2024-03-02T00:23:52;5.30;99.90
9776;DHT22;4927;52.472;13.108;2024-03-02T00:24:56;5.40;99.90
9776;DHT22;4927;52.472;13.108;2024-03-02T00:25:59;5.40;99.90
9776;DHT22;4927;52.472;13.108;2024-03-02T00:27:03;5.40;99.90
9776;DHT22;4927;52.472;13.108;2024-03-02T00:28:19;5.40;99.90
9776;DHT22;4927;52.472;13.108;2024-03-02T00:29:21;5.40;99.90
9776;DHT22;4927;52.472;13.108;2024-03-02T00:31:53;5.40;99.90
9776;DHT22;4927;52.472;13.108;2024-03-02T00:32:56;5.50;99.90
9776;DHT22;4927;52.472;13.108;2024-03-02T00:34:00;5.50;99.90
9776;DHT22;4927;52.472;13.108;2024-03-02T00:35:04;5.50;99.90
9776;DHT22;4927;52.472;13.108;2024-03-02T00:36:08;5.50;99.90
9776;DHT22;4927;52.472;13.108;2024-03-02T00:37:11;5.50;99.90
9776;DHT22;4927;52.472;13.108;2024-03-02T00:38:13;5.50;99.90
9776;DHT22;4927;52.472;13.108;2024-03-02T00:39:17;5.50;99.90
9776;DHT22;4927;52.472;13.108;2024-03-02T00:40:19;5.50;99.90
9776;DHT22;4927;52.472;13.108;2024-03-02T00:41:25;5.50;99.90
9776;DHT22;4927;52.472;13.108;2024-03-02T00:42:28;5.50;99.90
9776;DHT22;4927;52.472;13.108;2024-03-02T00:43:41;5.50;99.90
9776;DHT22;4927;52.472;13.108;2024-03-02T00:44:41;5.50;99.90
9776;DHT22;4927;52.472;13.108;2024-03-02T00:45:44;5.50;99.90
9776;DHT22;4927;52.472;13.108;2024-03-02T00:46:48;5.50;99.90
9776;DHT22;4927;52.472;13.108;2024-03-02T00:47:52;5.50;99.90
9776;DHT22;4927;52.472;13.108;2024-03-02T00:48:56;5.60;99.90
9776;DHT22;4927;52.472;13.108;2024-03-02T00:50:01;5.50;99.90
9776;DHT22;4927;52.472;13.108;2024-03-02T00:51:05;5.50;99.90
9776;DHT22;4927;52.472;13.108;2024-03-02T00:52:08;5.60;99.90
9776;DHT22;4927;52.472;13.108;2024-03-02T00:53:13;5.60;99.90
9776;DHT22;4927;52.472;13.108;2024-03-02T00:54:25;5.60;99.90
9776;DHT22;4927;52.472;13.108;2024-03-02T00:55:29;5.60;99.90
9776;DHT22;4927;52.472;13.108;2024-03-02T00:56:33;5.60;99.90
9776;DHT22;4927;52.472;13.108;2024-03-02T00:57:36;5.60;99.90
9776;DHT22;4927;52.472;13.108;2024-03-02T00:58:40;5.60;99.90
9776;DHT22;4927;52.472;13.108;2024-03-02T00:59:43;5.60;99.90
9776;DHT22;4927;52.472;13.108;2024-03-02T01:00:46;5.60;99.90
9776;DHT22;4927;52.472;13.108;2024-03-02T01:01:49;5.70;99.90
9776;DHT22;4927;52.472;13.108;2024-03-02T01:02:52;5.60;99.90
9776;DHT22;4927;52.472;13.108;2024-03-02T01:03:56;5.60;99.90
9776;DHT22;4927;52.472;13.108;2024-03-02T01:04:59;5.60;99.90
9776;DHT22;4927;52.472;13.108;2024-03-02T01:06:02;5.60;99.90
9776;DHT22;4927;52.472;13.108;2024-03-02T01:07:07;5.70;99.90
9776;DHT22;4927;52.472;13.108;2024-03-02T01:08:10;5.70;99.90
9776;DHT22;4927;52.472;13.108;2024-03-02T01:09:14;5.70;99.90
9776;DHT22;4927;52.472;13.108;2024-03-02T01:10:18;5.70;99.90
9776;DHT22;4927;52.472;13.108;2024-03-02T01:11:22;5.70;99.90
9776;DHT22;4927;52.472;13.108;2024-03-02T01:12:26;5.70;99.90
9776;DHT22;4927;52.472;13.108;2024-03-02T01:13:29;5.70;99.90
9776;DHT22;4927;52.472;13.108;2024-03-02T01:14:31;5.70;99.90
9776;DHT22;4927;52.472;13.108;2024-03-02T01:15:35;5.70;99.90
9776;DHT22;4927;52.472;13.108;2024-03-02T01:16:38;5.70;99.90
9776;DHT22;4927;52.472;13.108;2024-03-02T01:17:42;5.70;99.90
9776;DHT22;4927;52.472;13.108;2024-03-02T01:18:46;5.70;99.90
9776;DHT22;4927;52.472;13.108;2024-03-02T01:19:50;5.70;99.90
9776;DHT22;4927;52.472;13.108;2024-03-02T01:20:54;5.70;99.90
9776;DHT22;4927;52.472;13.108;2024-03-02T01:22:00;5.70;99.90
9776;DHT22;4927;52.472;13.108;2024-03-02T01:23:04;5.70;99.90
9776;DHT22;4927;52.472;13.108;2024-03-02T01:24:08;5.70;99.90
9776;DHT22;4927;52.472;13.108;2024-03-02T01:25:10;5.70;99.90
9776;DHT22;4927;52.472;13.108;2024-03-02T01:26:13;5.70;99.90
9776;DHT22;4927;52.472;13.108;2024-03-02T01:27:16;5.70;99.90
9776;DHT22;4927;52.472;13.108;2024-03-02T01:28:20;5.80;99.90
9776;DHT22;4927;52.472;13.108;2024-03-02T01:29:23;5.70;99.90
9776;DHT22;4927;52.472;13.108;2024-03-02T01:30:26;5.80;99.90
9776;DHT22;4927;52.472;13.108;2024-03-02T01:31:30;5.80;99.90
9776;DHT22;4927;52.472;13.108;2024-03-02T01:32:34;5.80;99.90
9776;DHT22;4927;52.472;13.108;2024-03-02T01:33:37;5.80;99.90
9776;DHT22;4927;52.472;13.108;2024-03-02T01:34:40;5.80;99.90
9776;DHT22;4927;52.472;13.108;2024-03-02T01:35:45;5.80;99.90
9776;DHT22;4927;52.472;13.108;2024-03-02T01:36:48;5.80;99.90
9776;DHT22;4927;52.472;13.108;2024-03-02T01:37:51;5.80;99.90
9776;DHT22;4927;52.472;13.108;2024-03-02T01:38:55;5.80;99.90
9776;DHT22;4927;52.472;13.108;2024-03-02T01:39:59;5.80;99.90
9776;DHT22;4927;52.472;13.108;2024-03-02T01:41:02;5.80;99.90
9776;DHT22;4927;52.472;13.108;2024-03-02T01:42:06;5.80;99.90
9776;DHT22;4927;52.472;13.108;2024-03-02T01:43:10;5.80;99.90
9776;DHT22;4927;52.472;13.108;2024-03-02T01:44:14;5.80;99.90
9776;DHT22;4927;52.472;13.108;2024-03-02T01:45:17;5.80;99.90
9776;DHT22;4927;52.472;13.108;2024-03-02T01:46:20;5.80;99.90
9776;DHT22;4927;52.472;13.108;2024-03-02T01:47:24;5.80;99.90
9776;DHT22;4927;52.472;13.108;2024-03-02T01:48:28;5.80;99.90
9776;DHT22;4927;52.472;13.108;2024-03-02T01:49:31;5.80;99.90
9776;DHT22;4927;52.472;13.108;2024-03-02T01:50:34;5.80;99.90
9776;DHT22;4927;52.472;13.108;2024-03-02T01:51:38;5.80;99.90
9776;DHT22;4927;52.472;13.108;2024-03-02T01:52:41;5.80;99.90
9776;DHT22;4927;52.472;13.108;2024-03-02T01:53:45;5.70;99.90
9776;DHT22;4927;52.472;13.108;2024-03-02T01:54:48;5.80;99.90
9776;DHT22;4927;52.472;13.108;2024-03-02T01:55:52;5.80;99.90
9776;DHT22;4927;52.472;13.108;2024-03-02T01:56:55;5.80;99.90
9776;DHT22;4927;52.472;13.108;2024-03-02T01:57:58;5.80;99.90
9776;DHT22;4927;52.472;13.108;2024-03-02T01:59:02;5.80;99.90
9776;DHT22;4927;52.472;13.108;2024-03-02T02:00:07;5.80;99.90
9776;DHT22;4927;52.472;13.108;2024-03-02T02:01:10;5.80;99.90
9776;DHT22;4927;52.472;13.108;2024-03-02T02:02:14;5.80;99.90
9776;DHT22;4927;52.472;13.108;2024-03-02T02:03:16;5.80;99.90
9776;DHT22;4927;52.472;13.108;2024-03-02T02:04:19;5.80;99.90
9776;DHT22;4927;52.472;13.108;2024-03-02T02:05:23;5.80;99.90
9776;DHT22;4927;52.472;13.108;2024-03-02T02:06:27;5.80;99.90
9776;DHT22;4927;52.472;13.108;2024-03-02T02:07:29;5.80;99.90
9776;DHT22;4927;52.472;13.108;2024-03-02T02:08:33;5.80;99.90
9776;DHT22;4927;52.472;13.108;2024-03-02T02:09:38;5.80;99.90
9776;DHT22;4927;52.472;13.108;2024-03-02T02:10:41;5.80;99.90
9776;DHT22;4927;52.472;13.108;2024-03-02T02:11:45;5.80;99.90
9776;DHT22;4927;52.472;13.108;2024-03-02T02:12:49;5.80;99.90
9776;DHT22;4927;52.472;13.108;2024-03-02T02:13:52;5.80;99.90
9776;DHT22;4927;52.472;13.108;2024-03-02T02:14:55;5.80;99.90
9776;DHT22;4927;52.472;13.108;2024-03-02T02:16:07;5.80;99.90
9776;DHT22;4927;52.472;13.108;2024-03-02T02:17:10;5.80;99.90
9776;DHT22;4927;52.472;13.108;2024-03-02T02:18:14;5.80;99.90
9776;DHT22;4927;52.472;13.108;2024-03-02T02:19:16;5.80;99.90
9776;DHT22;4927;52.472;13.108;2024-03-02T02:20:19;5.80;99.90
9776;DHT22;4927;52.472;13.108;2024-03-02T02:21:23;5.80;99.90
9776;DHT22;4927;52.472;13.108;2024-03-02T02:22:26;5.80;99.90
9776;DHT22;4927;52.472;13.108;2024-03-02T02:23:29;5.80;99.90
9776;DHT22;4927;52.472;13.108;2024-03-02T02:24:32;5.80;99.90
9776;DHT22;4927;52.472;13.108;2024-03-02T02:25:36;5.80;99.90
9776;DHT22;4927;52.472;13.108;2024-03-02T02:26:40;5.80;99.90
9776;DHT22;4927;52.472;13.108;2024-03-02T02:27:44;5.70;99.90
9776;DHT22;4927;52.472;13.108;2024-03-02T02:28:46;5.70;99.90
9776;DHT22;4927;52.472;13.108;2024-03-02T02:29:50;5.70;99.90
9776;DHT22;4927;52.472;13.108;2024-03-02T02:30:54;5.70;99.90
9776;DHT22;4927;52.472;13.108;2024-03-02T02:31:55;5.70;99.90
9776;DHT22;4927;52.472;13.108;2024-03-02T02:32:59;5.70;99.90
9776;DHT22;4927;52.472;13.108;2024-03-02T02:34:02;5.70;99.90
9776;DHT22;4927;52.472;13.108;2024-03-02T02:35:06;5.70;99.90
9776;DHT22;4927;52.472;13.108;2024-03-02T02:36:11;5.70;99.90
9776;DHT22;4927;52.472;13.108;2024-03-02T02:37:13;5.70;99.90
9776;DHT22;4927;52.472;13.108;2024-03-02T02:38:16;5.70;99.90
9776;DHT22;4927;52.472;13.108;2024-03-02T02:39:20;5.70;99.90
9776;DHT22;4927;52.472;13.108;2024-03-02T02:40:22;5.70;99.90
9776;DHT22;4927;52.472;13.108;2024-03-02T02:41:25;5.70;99.90
9776;DHT22;4927;52.472;13.108;2024-03-02T02:42:28;5.70;99.90
9776;DHT22;4927;52.472;13.108;2024-03-02T02:43:31;5.70;99.90
9776;DHT22;4927;52.472;13.108;2024-03-02T02:44:34;5.70;99.90
9776;DHT22;4927;52.472;13.108;2024-03-02T02:45:37;5.70;99.90
9776;DHT22;4927;52.472;13.108;2024-03-02T02:46:40;5.70;99.90
9776;DHT22;4927;52.472;13.108;2024-03-02T02:47:44;5.70;99.90
9776;DHT22;4927;52.472;13.108;2024-03-02T02:48:47;5.70;99.90
9776;DHT22;4927;52.472;13.108;2024-03-02T02:49:50;5.70;99.90
9776;DHT22;4927;52.472;13.108;2024-03-02T02:51:04;5.70;99.90
9776;DHT22;4927;52.472;13.108;2024-03-02T02:52:07;5.70;99.90
9776;DHT22;4927;52.472;13.108;2024-03-02T02:53:10;5.70;99.90
9776;DHT22;4927;52.472;13.108;2024-03-02T02:54:14;5.70;99.90
9776;DHT22;4927;52.472;13.108;2024-03-02T02:55:19;5.80;99.90
9776;DHT22;4927;52.472;13.108;2024-03-02T02:56:22;5.70;99.90
9776;DHT22;4927;52.472;13.108;2024-03-02T02:57:25;5.80;99.90
9776;DHT22;4927;52.472;13.108;2024-03-02T02:58:28;5.80;99.90
9776;DHT22;4927;52.472;13.108;2024-03-02T02:59:30;5.80;99.90
9776;DHT22;4927;52.472;13.108;2024-03-02T03:00:33;5.70;99.90
9776;DHT22;4927;52.472;13.108;2024-03-02T03:01:37;5.80;99.90
9776;DHT22;4927;52.472;13.108;2024-03-02T03:02:41;5.80;99.90
9776;DHT22;4927;52.472;13.108;2024-03-02T03:03:43;5.80;99.90
9776;DHT22;4927;52.472;13.108;2024-03-02T03:04:46;5.80;99.90
9776;DHT22;4927;52.472;13.108;2024-03-02T03:05:49;5.80;99.90
9776;DHT22;4927;52.472;13.108;2024-03-02T03:06:52;5.80;99.90
9776;DHT22;4927;52.472;13.108;2024-03-02T03:07:55;5.80;99.90
9776;DHT22;4927;52.472;13.108;2024-03-02T03:08:59;5.80;99.90
9776;DHT22;4927;52.472;13.108;2024-03-02T03:10:03;5.80;99.90
9776;DHT22;4927;52.472;13.108;2024-03-02T03:11:08;5.80;99.90
9776;DHT22;4927;52.472;13.108;2024-03-02T03:12:11;5.90;99.90
9776;DHT22;4927;52.472;13.108;2024-03-02T03:13:15;5.90;99.90
9776;DHT22;4927;52.472;13.108;2024-03-02T03:14:19;5.90;99.90
9776;DHT22;4927;52.472;13.108;2024-03-02T03:15:22;5.90;99.90
9776;DHT22;4927;52.472;13.108;2024-03-02T03:16:26;5.90;99.90
9776;DHT22;4927;52.472;13.108;2024-03-02T03:17:29;5.90;99.90
9776;DHT22;4927;52.472;13.108;2024-03-02T03:18:33;5.90;99.90
9776;DHT22;4927;52.472;13.108;2024-03-02T03:19:38;5.90;99.90
9776;DHT22;4927;52.472;13.108;2024-03-02T03:20:41;6.00;99.90
9776;DHT22;4927;52.472;13.108;2024-03-02T03:21:45;5.90;99.90
9776;DHT22;4927;52.472;13.108;2024-03-02T03:22:48;6.00;99.90
9776;DHT22;4927;52.472;13.108;2024-03-02T03:23:51;6.00;99.90
9776;DHT22;4927;52.472;13.108;2024-03-02T03:24:54;6.00;99.90
9776;DHT22;4927;52.472;13.108;2024-03-02T03:25:58;6.00;99.90
9776;DHT22;4927;52.472;13.108;2024-03-02T03:27:01;6.00;99.90
9776;DHT22;4927;52.472;13.108;2024-03-02T03:28:05;6.00;99.90
9776;DHT22;4927;52.472;13.108;2024-03-02T03:29:09;6.00;99.90
9776;DHT22;4927;52.472;13.108;2024-03-02T03:30:13;6.00;99.90
9776;DHT22;4927;52.472;13.108;2024-03-02T03:31:17;6.00;99.90
9776;DHT22;4927;52.472;13.108;2024-03-02T03:32:21;6.10;99.90
9776;DHT22;4927;52.472;13.108;2024-03-02T03:33:24;6.10;99.90
9776;DHT22;4927;52.472;13.108;2024-03-02T03:34:29;6.10;99.90
9776;DHT22;4927;52.472;13.108;2024-03-02T03:35:31;6.10;99.90
9776;DHT22;4927;52.472;13.108;2024-03-02T03:36:35;6.10;99.90
9776;DHT22;4927;52.472;13.108;2024-03-02T03:37:38;6.10;99.90
9776;DHT22;4927;52.472;13.108;2024-03-02T03:38:42;6.20;99.90
9776;DHT22;4927;52.472;13.108;2024-03-02T03:39:45;6.20;99.90
9776;DHT22;4927;52.472;13.108;2024-03-02T03:40:50;6.20;99.90
9776;DHT22;4927;52.472;13.108;2024-03-02T03:41:53;6.20;99.90
9776;DHT22;4927;52.472;13.108;2024-03-02T03:42:57;6.20;99.90
9776;DHT22;4927;52.472;13.108;2024-03-02T03:43:59;6.20;99.90
9776;DHT22;4927;52.472;13.108;2024-03-02T03:45:02;6.20;99.90
9776;DHT22;4927;52.472;13.108;2024-03-02T03:46:07;6.20;99.90
9776;DHT22;4927;52.472;13.108;2024-03-02T03:47:09;6.20;99.90
9776;DHT22;4927;52.472;13.108;2024-03-02T03:48:12;6.20;99.90
9776;DHT22;4927;52.472;13.108;2024-03-02T03:49:15;6.20;99.90
9776;DHT22;4927;52.472;13.108;2024-03-02T03:50:18;6.30;99.90
9776;DHT22;4927;52.472;13.108;2024-03-02T03:51:21;6.20;99.90
9776;DHT22;4927;52.472;13.108;2024-03-02T03:52:23;6.20;99.90
9776;DHT22;4927;52.472;13.108;2024-03-02T03:53:26;6.20;99.90
9776;DHT22;4927;52.472;13.108;2024-03-02T03:54:29;6.30;99.90
9776;DHT22;4927;52.472;13.108;2024-03-02T03:55:32;6.30;99.90
9776;DHT22;4927;52.472;13.108;2024-03-02T03:56:35;6.30;99.90
9776;DHT22;4927;52.472;13.108;2024-03-02T03:57:39;6.30;99.90
9776;DHT22;4927;52.472;13.108;2024-03-02T03:58:42;6.30;99.90
9776;DHT22;4927;52.472;13.108;2024-03-02T03:59:45;6.30;99.90
9776;DHT22;4927;52.472;13.108;2024-03-02T04:00:47;6.30;99.90
9776;DHT22;4927;52.472;13.108;2024-03-02T04:01:50;6.30;99.90
9776;DHT22;4927;52.472;13.108;2024-03-02T04:02:53;6.30;99.90
9776;DHT22;4927;52.472;13.108;2024-03-02T04:03:55;6.30;99.90
9776;DHT22;4927;52.472;13.108;2024-03-02T04:04:58;6.30;99.90
9776;DHT22;4927;52.472;13.108;2024-03-02T04:06:01;6.30;99.90
9776;DHT22;4927;52.472;13.108;2024-03-02T04:07:05;6.40;99.90
9776;DHT22;4927;52.472;13.108;2024-03-02T04:08:08;6.30;99.90
9776;DHT22;4927;52.472;13.108;2024-03-02T04:09:11;6.40;99.90
9776;DHT22;4927;52.472;13.108;2024-03-02T04:10:13;6.40;99.90
9776;DHT22;4927;52.472;13.108;2024-03-02T04:11:17;6.40;99.90
9776;DHT22;4927;52.472;13.108;2024-03-02T04:12:20;6.40;99.90
9776;DHT22;4927;52.472;13.108;2024-03-02T04:13:23;6.40;99.90
9776;DHT22;4927;52.472;13.108;2024-03-02T04:14:27;6.40;99.90
9776;DHT22;4927;52.472;13.108;2024-03-02T04:15:30;6.50;99.90
9776;DHT22;4927;52.472;13.108;2024-03-02T04:16:33;6.40;99.90
9776;DHT22;4927;52.472;13.108;2024-03-02T04:17:35;6.50;99.90
9776;DHT22;4927;52.472;13.108;2024-03-02T04:18:38;6.50;99.90
9776;DHT22;4927;52.472;13.108;2024-03-02T04:19:41;6.50;99.90
9776;DHT22;4927;52.472;13.108;2024-03-02T04:20:43;6.50;99.90
9776;DHT22;4927;52.472;13.108;2024-03-02T04:21:46;6.50;99.90
9776;DHT22;4927;52.472;13.108;2024-03-02T04:22:48;6.60;99.90
9776;DHT22;4927;52.472;13.108;2024-03-02T04:23:52;6.60;99.90
9776;DHT22;4927;52.472;13.108;2024-03-02T04:24:54;6.60;99.90
9776;DHT22;4927;52.472;13.108;2024-03-02T04:25:57;6.60;99.90
9776;DHT22;4927;52.472;13.108;2024-03-02T04:26:59;6.60;99.90
9776;DHT22;4927;52.472;13.108;2024-03-02T04:28:03;6.70;99.90
9776;DHT22;4927;52.472;13.108;2024-03-02T04:29:06;6.70;99.90
9776;DHT22;4927;52.472;13.108;2024-03-02T04:30:09;6.70;99.90
9776;DHT22;4927;52.472;13.108;2024-03-02T04:31:12;6.70;99.90
9776;DHT22;4927;52.472;13.108;2024-03-02T04:32:16;6.70;99.90
9776;DHT22;4927;52.472;13.108;2024-03-02T04:33:19;6.70;99.90
9776;DHT22;4927;52.472;13.108;2024-03-02T04:34:21;6.70;99.90
9776;DHT22;4927;52.472;13.108;2024-03-02T04:35:24;6.70;99.90
9776;DHT22;4927;52.472;13.108;2024-03-02T04:36:27;6.70;99.90
9776;DHT22;4927;52.472;13.108;2024-03-02T04:37:29;6.70;99.90
9776;DHT22;4927;52.472;13.108;2024-03-02T04:38:32;6.80;99.90
9776;DHT22;4927;52.472;13.108;2024-03-02T04:39:35;6.80;99.90
9776;DHT22;4927;52.472;13.108;2024-03-02T04:40:37;6.80;99.90
9776;DHT22;4927;52.472;13.108;2024-03-02T04:41:40;6.80;99.90
9776;DHT22;4927;52.472;13.108;2024-03-02T04:42:43;6.80;99.90
9776;DHT22;4927;52.472;13.108;2024-03-02T04:43:45;6.80;99.90
9776;DHT22;4927;52.472;13.108;2024-03-02T04:44:49;6.80;99.90
9776;DHT22;4927;52.472;13.108;2024-03-02T04:45:53;6.80;99.90
9776;DHT22;4927;52.472;13.108;2024-03-02T04:46:55;6.80;99.90
9776;DHT22;4927;52.472;13.108;2024-03-02T04:47:58;6.80;99.90
9776;DHT22;4927;52.472;13.108;2024-03-02T04:49:00;6.80;99.90
9776;DHT22;4927;52.472;13.108;2024-03-02T04:50:04;6.80;99.90
9776;DHT22;4927;52.472;13.108;2024-03-02T04:51:08;6.90;99.90
9776;DHT22;4927;52.472;13.108;2024-03-02T04:52:10;6.80;99.90
9776;DHT22;4927;52.472;13.108;2024-03-02T04:53:14;6.90;99.90
9776;DHT22;4927;52.472;13.108;2024-03-02T04:54:16;6.80;99.90
9776;DHT22;4927;52.472;13.108;2024-03-02T04:55:20;6.90;99.90
9776;DHT22;4927;52.472;13.108;2024-03-02T04:56:40;6.90;99.90
9776;DHT22;4927;52.472;13.108;2024-03-02T04:57:46;6.90;99.90
9776;DHT22;4927;52.472;13.108;2024-03-02T04:58:49;6.90;99.90
9776;DHT22;4927;52.472;13.108;2024-03-02T04:59:52;6.90;99.90
9776;DHT22;4927;52.472;13.108;2024-03-02T05:00:55;6.90;99.90
9776;DHT22;4927;52.472;13.108;2024-03-02T05:01:57;6.90;99.90
9776;DHT22;4927;52.472;13.108;2024-03-02T05:03:00;6.90;99.90
9776;DHT22;4927;52.472;13.108;2024-03-02T05:04:03;6.90;99.90
9776;DHT22;4927;52.472;13.108;2024-03-02T05:05:07;6.90;99.90
9776;DHT22;4927;52.472;13.108;2024-03-02T05:06:10;7.00;99.90
9776;DHT22;4927;52.472;13.108;2024-03-02T05:07:13;6.90;99.90
9776;DHT22;4927;52.472;13.108;2024-03-02T05:08:15;6.90;99.90
9776;DHT22;4927;52.472;13.108;2024-03-02T05:09:20;7.00;99.90
9776;DHT22;4927;52.472;13.108;2024-03-02T05:10:23;7.00;99.90
9776;DHT22;4927;52.472;13.108;2024-03-02T05:11:25;7.00;99.90
9776;DHT22;4927;52.472;13.108;2024-03-02T05:12:32;7.10;99.90
9776;DHT22;4927;52.472;13.108;2024-03-02T05:13:41;7.10;99.90
9776;DHT22;4927;52.472;13.108;2024-03-02T05:14:43;7.00;99.90
9776;DHT22;4927;52.472;13.108;2024-03-02T05:15:46;7.00;99.90
9776;DHT22;4927;52.472;13.108;2024-03-02T05:16:49;7.00;99.90
9776;DHT22;4927;52.472;13.108;2024-03-02T05:17:51;7.10;99.90
9776;DHT22;4927;52.472;13.108;2024-03-02T05:18:54;7.10;99.90
9776;DHT22;4927;52.472;13.108;2024-03-02T05:19:56;7.10;99.90
9776;DHT22;4927;52.472;13.108;2024-03-02T05:20:59;7.10;99.90
9776;DHT22;4927;52.472;13.108;2024-03-02T05:22:01;7.10;99.90
9776;DHT22;4927;52.472;13.108;2024-03-02T05:23:04;7.10;99.90
9776;DHT22;4927;52.472;13.108;2024-03-02T05:24:07;7.10;99.90
9776;DHT22;4927;52.472;13.108;2024-03-02T05:25:11;7.10;99.90
9776;DHT22;4927;52.472;13.108;2024-03-02T05:26:13;7.10;99.90
9776;DHT22;4927;52.472;13.108;2024-03-02T05:27:16;7.10;99.90
9776;DHT22;4927;52.472;13.108;2024-03-02T05:28:19;7.10;99.90
9776;DHT22;4927;52.472;13.108;2024-03-02T05:29:22;7.10;99.90
9776;DHT22;4927;52.472;13.108;2024-03-02T05:30:26;7.10;99.90
9776;DHT22;4927;52.472;13.108;2024-03-02T05:31:29;7.10;99.90
9776;DHT22;4927;52.472;13.108;2024-03-02T05:32:32;7.10;99.90
9776;DHT22;4927;52.472;13.108;2024-03-02T05:33:34;7.10;99.90
9776;DHT22;4927;52.472;13.108;2024-03-02T05:34:37;7.10;99.90
9776;DHT22;4927;52.472;13.108;2024-03-02T05:35:40;7.10;99.90
9776;DHT22;4927;52.472;13.108;2024-03-02T05:36:43;7.00;99.90
9776;DHT22;4927;52.472;13.108;2024-03-02T05:37:45;7.00;99.90
9776;DHT22;4927;52.472;13.108;2024-03-02T05:38:48;7.10;99.90
9776;DHT22;4927;52.472;13.108;2024-03-02T05:39:50;7.10;99.90
9776;DHT22;4927;52.472;13.108;2024-03-02T05:40:54;7.10;99.90
9776;DHT22;4927;52.472;13.108;2024-03-02T05:41:57;7.10;99.90
9776;DHT22;4927;52.472;13.108;2024-03-02T05:42:59;7.10;99.90
9776;DHT22;4927;52.472;13.108;2024-03-02T05:44:01;7.00;99.90
9776;DHT22;4927;52.472;13.108;2024-03-02T05:45:05;7.00;99.90
9776;DHT22;4927;52.472;13.108;2024-03-02T05:46:09;7.10;99.90
9776;DHT22;4927;52.472;13.108;2024-03-02T05:47:14;7.10;99.90
9776;DHT22;4927;52.472;13.108;2024-03-02T05:48:16;7.00;99.90
9776;DHT22;4927;52.472;13.108;2024-03-02T05:49:19;7.00;99.90
9776;DHT22;4927;52.472;13.108;2024-03-02T05:50:22;7.10;99.90
9776;DHT22;4927;52.472;13.108;2024-03-02T05:51:25;7.10;99.90
9776;DHT22;4927;52.472;13.108;2024-03-02T05:52:27;7.00;99.90
9776;DHT22;4927;52.472;13.108;2024-03-02T05:53:30;7.10;99.90
9776;DHT22;4927;52.472;13.108;2024-03-02T05:54:32;7.00;99.90
9776;DHT22;4927;52.472;13.108;2024-03-02T05:55:35;7.00;99.90
9776;DHT22;4927;52.472;13.108;2024-03-02T05:56:38;7.10;99.90
9776;DHT22;4927;52.472;13.108;2024-03-02T05:57:40;7.00;99.90
9776;DHT22;4927;52.472;13.108;2024-03-02T05:59:00;7.10;99.90
9776;DHT22;4927;52.472;13.108;2024-03-02T06:00:10;7.00;99.90
9776;DHT22;4927;52.472;13.108;2024-03-02T06:01:13;7.10;99.90
9776;DHT22;4927;52.472;13.108;2024-03-02T06:02:16;7.00;99.90
9776;DHT22;4927;52.472;13.108;2024-03-02T06:03:18;7.10;99.90
9776;DHT22;4927;52.472;13.108;2024-03-02T06:04:21;7.00;99.90
9776;DHT22;4927;52.472;13.108;2024-03-02T06:05:23;7.00;99.90
9776;DHT22;4927;52.472;13.108;2024-03-02T06:06:26;7.00;99.90
9776;DHT22;4927;52.472;13.108;2024-03-02T06:07:29;7.10;99.90
9776;DHT22;4927;52.472;13.108;2024-03-02T06:08:31;7.00;99.90
9776;DHT22;4927;52.472;13.108;2024-03-02T06:09:34;7.10;99.90
9776;DHT22;4927;52.472;13.108;2024-03-02T06:10:36;7.10;99.90
9776;DHT22;4927;52.472;13.108;2024-03-02T06:11:40;7.00;99.90
9776;DHT22;4927;52.472;13.108;2024-03-02T06:12:42;7.00;99.90
9776;DHT22;4927;52.472;13.108;2024-03-02T06:13:45;7.10;99.90
9776;DHT22;4927;52.472;13.108;2024-03-02T06:14:48;7.00;99.90
9776;DHT22;4927;52.472;13.108;2024-03-02T06:15:50;7.10;99.90
9776;DHT22;4927;52.472;13.108;2024-03-02T06:16:53;7.10;99.90
9776;DHT22;4927;52.472;13.108;2024-03-02T06:17:55;7.00;99.90
9776;DHT22;4927;52.472;13.108;2024-03-02T06:18:57;7.10;99.90
9776;DHT22;4927;52.472;13.108;2024-03-02T06:20:00;7.10;99.90
9776;DHT22;4927;52.472;13.108;2024-03-02T06:21:02;7.00;99.90
9776;DHT22;4927;52.472;13.108;2024-03-02T06:22:05;7.10;99.90
9776;DHT22;4927;52.472;13.108;2024-03-02T06:23:07;7.10;99.90
9776;DHT22;4927;52.472;13.108;2024-03-02T06:24:10;7.10;99.90
9776;DHT22;4927;52.472;13.108;2024-03-02T06:25:12;7.00;99.90
9776;DHT22;4927;52.472;13.108;2024-03-02T06:26:15;7.10;99.90
9776;DHT22;4927;52.472;13.108;2024-03-02T06:27:17;7.10;99.90
9776;DHT22;4927;52.472;13.108;2024-03-02T06:28:20;7.10;99.90
9776;DHT22;4927;52.472;13.108;2024-03-02T06:29:23;7.10;99.90
9776;DHT22;4927;52.472;13.108;2024-03-02T06:30:26;7.10;99.90
9776;DHT22;4927;52.472;13.108;2024-03-02T06:31:29;7.10;99.90
9776;DHT22;4927;52.472;13.108;2024-03-02T06:32:33;7.10;99.90
9776;DHT22;4927;52.472;13.108;2024-03-02T06:33:41;7.10;99.90
9776;DHT22;4927;52.472;13.108;2024-03-02T06:34:45;7.10;99.90
9776;DHT22;4927;52.472;13.108;2024-03-02T06:35:49;7.10;99.90
9776;DHT22;4927;52.472;13.108;2024-03-02T06:36:52;7.10;99.90
9776;DHT22;4927;52.472;13.108;2024-03-02T06:37:55;7.10;99.90
9776;DHT22;4927;52.472;13.108;2024-03-02T06:38:58;7.10;99.90
9776;DHT22;4927;52.472;13.108;2024-03-02T06:40:01;7.10;99.90
9776;DHT22;4927;52.472;13.108;2024-03-02T06:41:05;7.20;99.90
9776;DHT22;4927;52.472;13.108;2024-03-02T06:42:07;7.10;99.90
9776;DHT22;4927;52.472;13.108;2024-03-02T06:43:10;7.20;99.90
9776;DHT22;4927;52.472;13.108;2024-03-02T06:44:13;7.10;99.90
9776;DHT22;4927;52.472;13.108;2024-03-02T06:45:17;7.20;99.90
9776;DHT22;4927;52.472;13.108;2024-03-02T06:46:20;7.20;99.90
9776;DHT22;4927;52.472;13.108;2024-03-02T06:47:24;7.20;99.90
9776;DHT22;4927;52.472;13.108;2024-03-02T06:48:27;7.20;99.90
9776;DHT22;4927;52.472;13.108;2024-03-02T06:49:29;7.20;99.90
9776;DHT22;4927;52.472;13.108;2024-03-02T06:50:32;7.30;99.90
9776;DHT22;4927;52.472;13.108;2024-03-02T06:51:34;7.30;99.90
9776;DHT22;4927;52.472;13.108;2024-03-02T06:52:38;7.30;99.90
9776;DHT22;4927;52.472;13.108;2024-03-02T06:53:41;7.30;99.90
9776;DHT22;4927;52.472;13.108;2024-03-02T06:54:46;7.40;99.90
9776;DHT22;4927;52.472;13.108;2024-03-02T06:55:48;7.40;99.90
9776;DHT22;4927;52.472;13.108;2024-03-02T06:56:50;7.40;99.90